Nrp Zarco — CTEH — position and weather

sailwx.info

Track history (hours):
 
Tides and Currents Weather Stations Pressure Air Temp Water Temp Dewpoint Dewpoint Depression Visibility Wind Speed Wind Dir Waves Ship Positions

Nrp Zarco

Last reported at 2018-Jun-14 16:48 UTC. Time now 2018-Jun-22 13:27 UTC.
Position N 38°40' W 009°09'.

Length 23 m; draft 3 m.

Type: Sailing vessel. MMSI: 263143000.

Date/timePositionNaut miles runAvg speedWind from/ knotsBaromVisibWave heightAir tempDewpointWater temp
2018-Jun-14 16:48N 38°40' W 009°09'0 0.2
2018-Jun-14 16:20N 38°40' W 009°09'0 0.2
2018-Jun-14 15:52N 38°40' W 009°09'0 0.0
2018-Jun-14 15:22N 38°40' W 009°09'0 0.0
2018-Jun-14 14:58N 38°40' W 009°09'0 0.0
2018-Jun-14 14:19N 38°40' W 009°09'0 0.0
2018-Jun-14 13:55N 38°40' W 009°09'0 0.0
2018-Jun-14 13:28N 38°40' W 009°09'0 0.2
2018-Jun-14 12:56N 38°40' W 009°09'  
2018-Jun-09 07:11N 38°40' W 009°09'0 0.8
2018-Jun-09 07:01N 38°40' W 009°09'2 3.1
2018-Jun-09 06:31N 38°42' W 009°08'3 5.4
2018-Jun-09 05:58N 38°41' W 009°12'3 6.1
2018-Jun-09 05:29N 38°41' W 009°15'3 6.1
2018-Jun-09 05:01N 38°40' W 009°19'1 2.5
2018-Jun-09 04:28N 38°40' W 009°21'0 0.0
2018-Jun-09 04:00N 38°40' W 009°21'1 1.4
2018-Jun-09 03:29N 38°41' W 009°21'1 2.0
2018-Jun-09 03:00N 38°41' W 009°23'1 2.4
2018-Jun-09 02:28N 38°41' W 009°24'1 1.4
2018-Jun-09 01:56N 38°42' W 009°25'0 0.0
2018-Jun-09 00:20N 38°42' W 009°25'0 0.0
2018-Jun-08 23:11N 38°42' W 009°25'0 0.0
2018-Jun-08 22:59N 38°42' W 009°25'0 0.0
2018-Jun-08 22:29N 38°42' W 009°25'0 0.0
2018-Jun-08 21:41N 38°42' W 009°25'0 0.0
2018-Jun-08 20:47N 38°42' W 009°25'0 0.0
2018-Jun-08 20:29N 38°42' W 009°25'0 0.0
2018-Jun-08 19:53N 38°42' W 009°25'1 2.9
2018-Jun-08 19:30N 38°41' W 009°24'3 6.6
2018-Jun-08 19:00N 38°38' W 009°22'3 6.8
2018-Jun-08 18:30N 38°35' W 009°19'3 6.4
2018-Jun-08 18:00N 38°33' W 009°17'3 6.1
2018-Jun-08 17:29N 38°30' W 009°16'3 6.4
2018-Jun-08 17:01N 38°27' W 009°15'3 5.8
2018-Jun-08 16:30N 38°24' W 009°13'3 5.8
2018-Jun-08 16:00N 38°24' W 009°10'3 6.0
2018-Jun-08 15:30N 38°26' W 009°07'0 0.9
2018-Jun-08 15:00N 38°26' W 009°06'0 0.8
2018-Jun-08 14:30N 38°26' W 009°06'1 1.4
2018-Jun-08 14:00N 38°26' W 009°07'1 2.3
2018-Jun-08 13:30N 38°25' W 009°07'3 6.7
2018-Jun-08 13:00N 38°24' W 009°11'3 5.9
2018-Jun-08 12:30N 38°25' W 009°15'3 7.1
2018-Jun-08 12:00N 38°29' W 009°16'4 7.2
2018-Jun-08 11:30N 38°32' W 009°17'4 7.4
2018-Jun-08 10:59N 38°36' W 009°18'3 7.3
2018-Jun-08 10:30N 38°39' W 009°19'3 5.4
2018-Jun-08 10:00N 38°41' W 009°16'3 5.9
2018-Jun-08 09:29N 38°41' W 009°12'3 5.7
2018-Jun-08 09:00N 38°41' W 009°09'1 2.2
2018-Jun-08 08:28N 38°40' W 009°09'  
Track history (hours):
 
Tides and Currents Weather Stations Pressure Air Temp Water Temp Dewpoint Dewpoint Depression Visibility Wind Speed Wind Dir Waves Ship Positions

Nrp Zarco

Last reported at 2018-Jun-14 16:48 UTC. Time now 2018-Jun-22 13:27 UTC.
Position N 38°40' W 009°09'.

Length 23 m; draft 3 m.

Type: Sailing vessel. MMSI: 263143000.

Date/timePositionNaut miles runAvg speedWind from/ knotsBaromVisibWave heightAir tempDewpointWater temp
2018-Jun-14 16:48N 38°40' W 009°09'0 0.2
2018-Jun-14 16:20N 38°40' W 009°09'0 0.2
2018-Jun-14 15:52N 38°40' W 009°09'0 0.0
2018-Jun-14 15:22N 38°40' W 009°09'0 0.0
2018-Jun-14 14:58N 38°40' W 009°09'0 0.0
2018-Jun-14 14:19N 38°40' W 009°09'0 0.0
2018-Jun-14 13:55N 38°40' W 009°09'0 0.0
2018-Jun-14 13:28N 38°40' W 009°09'0 0.2
2018-Jun-14 12:56N 38°40' W 009°09'  
2018-Jun-09 07:11N 38°40' W 009°09'0 0.8
2018-Jun-09 07:01N 38°40' W 009°09'2 3.1
2018-Jun-09 06:31N 38°42' W 009°08'3 5.4
2018-Jun-09 05:58N 38°41' W 009°12'3 6.1
2018-Jun-09 05:29N 38°41' W 009°15'3 6.1
2018-Jun-09 05:01N 38°40' W 009°19'1 2.5
2018-Jun-09 04:28N 38°40' W 009°21'0 0.0
2018-Jun-09 04:00N 38°40' W 009°21'1 1.4
2018-Jun-09 03:29N 38°41' W 009°21'1 2.0
2018-Jun-09 03:00N 38°41' W 009°23'1 2.4
2018-Jun-09 02:28N 38°41' W 009°24'1 1.4
2018-Jun-09 01:56N 38°42' W 009°25'0 0.0
2018-Jun-09 00:20N 38°42' W 009°25'0 0.0
2018-Jun-08 23:11N 38°42' W 009°25'0 0.0
2018-Jun-08 22:59N 38°42' W 009°25'0 0.0
2018-Jun-08 22:29N 38°42' W 009°25'0 0.0
2018-Jun-08 21:41N 38°42' W 009°25'0 0.0
2018-Jun-08 20:47N 38°42' W 009°25'0 0.0
2018-Jun-08 20:29N 38°42' W 009°25'0 0.0
2018-Jun-08 19:53N 38°42' W 009°25'1 2.9
2018-Jun-08 19:30N 38°41' W 009°24'3 6.6
2018-Jun-08 19:00N 38°38' W 009°22'3 6.8
2018-Jun-08 18:30N 38°35' W 009°19'3 6.4
2018-Jun-08 18:00N 38°33' W 009°17'3 6.1
2018-Jun-08 17:29N 38°30' W 009°16'3 6.4
2018-Jun-08 17:01N 38°27' W 009°15'3 5.8
2018-Jun-08 16:30N 38°24' W 009°13'3 5.8
2018-Jun-08 16:00N 38°24' W 009°10'3 6.0
2018-Jun-08 15:30N 38°26' W 009°07'0 0.9
2018-Jun-08 15:00N 38°26' W 009°06'0 0.8
2018-Jun-08 14:30N 38°26' W 009°06'1 1.4
2018-Jun-08 14:00N 38°26' W 009°07'1 2.3
2018-Jun-08 13:30N 38°25' W 009°07'3 6.7
2018-Jun-08 13:00N 38°24' W 009°11'3 5.9
2018-Jun-08 12:30N 38°25' W 009°15'3 7.1
2018-Jun-08 12:00N 38°29' W 009°16'4 7.2
2018-Jun-08 11:30N 38°32' W 009°17'4 7.4
2018-Jun-08 10:59N 38°36' W 009°18'3 7.3
2018-Jun-08 10:30N 38°39' W 009°19'3 5.4
2018-Jun-08 10:00N 38°41' W 009°16'3 5.9
2018-Jun-08 09:29N 38°41' W 009°12'3 5.7
2018-Jun-08 09:00N 38°41' W 009°09'1 2.2
2018-Jun-08 08:28N 38°40' W 009°09'  

Dump ship's entire track history